sensor_id;sensor_type;location;lat;lon;timestamp;P1;durP1;ratioP1;P2;durP2;ratioP2
24743;SDS011;12844;52.110;5.548;2024-01-16T00:00:33;0.90;;;0.40;;
24743;SDS011;12844;52.110;5.548;2024-01-16T00:02:59;2.63;;;0.70;;
24743;SDS011;12844;52.110;5.548;2024-01-16T00:05:24;3.72;;;0.77;;
24743;SDS011;12844;52.110;5.548;2024-01-16T00:07:50;2.15;;;0.60;;
24743;SDS011;12844;52.110;5.548;2024-01-16T00:10:16;1.90;;;0.60;;
24743;SDS011;12844;52.110;5.548;2024-01-16T00:12:42;2.60;;;0.80;;
24743;SDS011;12844;52.110;5.548;2024-01-16T00:15:09;3.10;;;0.73;;
24743;SDS011;12844;52.110;5.548;2024-01-16T00:17:35;3.45;;;0.95;;
24743;SDS011;12844;52.110;5.548;2024-01-16T00:20:00;1.52;;;0.70;;
24743;SDS011;12844;52.110;5.548;2024-01-16T00:22:27;4.55;;;0.90;;
24743;SDS011;12844;52.110;5.548;2024-01-16T00:24:52;2.92;;;0.70;;
24743;SDS011;12844;52.110;5.548;2024-01-16T00:27:18;3.08;;;0.60;;
24743;SDS011;12844;52.110;5.548;2024-01-16T00:29:44;2.22;;;0.77;;
24743;SDS011;12844;52.110;5.548;2024-01-16T00:32:09;2.13;;;0.55;;
24743;SDS011;12844;52.110;5.548;2024-01-16T00:34:35;3.90;;;0.80;;
24743;SDS011;12844;52.110;5.548;2024-01-16T00:37:00;2.03;;;0.73;;
24743;SDS011;12844;52.110;5.548;2024-01-16T00:39:26;2.28;;;0.73;;
24743;SDS011;12844;52.110;5.548;2024-01-16T00:41:52;2.45;;;0.60;;
24743;SDS011;12844;52.110;5.548;2024-01-16T00:44:17;2.60;;;0.60;;
24743;SDS011;12844;52.110;5.548;2024-01-16T00:46:43;2.85;;;0.88;;
24743;SDS011;12844;52.110;5.548;2024-01-16T00:49:08;2.60;;;0.60;;
24743;SDS011;12844;52.110;5.548;2024-01-16T00:51:34;2.28;;;0.60;;
24743;SDS011;12844;52.110;5.548;2024-01-16T00:54:00;2.20;;;0.60;;
24743;SDS011;12844;52.110;5.548;2024-01-16T00:56:26;3.08;;;0.70;;
24743;SDS011;12844;52.110;5.548;2024-01-16T00:58:56;1.27;;;0.70;;
24743;SDS011;12844;52.110;5.548;2024-01-16T01:01:22;2.85;;;0.68;;
24743;SDS011;12844;52.110;5.548;2024-01-16T01:03:48;1.10;;;0.60;;
24743;SDS011;12844;52.110;5.548;2024-01-16T01:06:13;2.08;;;0.70;;
24743;SDS011;12844;52.110;5.548;2024-01-16T01:08:39;1.88;;;0.75;;
24743;SDS011;12844;52.110;5.548;2024-01-16T01:11:05;2.35;;;0.73;;
24743;SDS011;12844;52.110;5.548;2024-01-16T01:13:30;1.08;;;0.40;;
24743;SDS011;12844;52.110;5.548;2024-01-16T01:15:56;2.58;;;0.57;;
24743;SDS011;12844;52.110;5.548;2024-01-16T01:18:22;2.08;;;0.63;;
24743;SDS011;12844;52.110;5.548;2024-01-16T01:20:48;1.92;;;0.60;;
24743;SDS011;12844;52.110;5.548;2024-01-16T01:23:13;2.78;;;0.47;;
24743;SDS011;12844;52.110;5.548;2024-01-16T01:25:39;2.78;;;0.57;;
24743;SDS011;12844;52.110;5.548;2024-01-16T01:28:05;1.58;;;0.60;;
24743;SDS011;12844;52.110;5.548;2024-01-16T01:30:31;2.10;;;0.60;;
24743;SDS011;12844;52.110;5.548;2024-01-16T01:32:57;2.42;;;0.75;;
24743;SDS011;12844;52.110;5.548;2024-01-16T01:35:22;1.23;;;0.40;;
24743;SDS011;12844;52.110;5.548;2024-01-16T01:37:48;1.30;;;0.40;;
24743;SDS011;12844;52.110;5.548;2024-01-16T01:40:14;3.20;;;0.60;;
24743;SDS011;12844;52.110;5.548;2024-01-16T01:42:41;2.35;;;0.68;;
24743;SDS011;12844;52.110;5.548;2024-01-16T01:45:08;1.80;;;0.60;;
24743;SDS011;12844;52.110;5.548;2024-01-16T01:47:40;2.38;;;0.60;;
24743;SDS011;12844;52.110;5.548;2024-01-16T01:52:35;1.35;;;0.70;;
24743;SDS011;12844;52.110;5.548;2024-01-16T01:55:03;1.90;;;0.50;;
24743;SDS011;12844;52.110;5.548;2024-01-16T01:57:31;0.70;;;0.38;;
24743;SDS011;12844;52.110;5.548;2024-01-16T01:59:58;1.40;;;0.50;;
24743;SDS011;12844;52.110;5.548;2024-01-16T02:02:24;1.38;;;0.60;;
24743;SDS011;12844;52.110;5.548;2024-01-16T02:04:50;3.50;;;0.50;;
24743;SDS011;12844;52.110;5.548;2024-01-16T02:07:16;1.30;;;0.60;;
24743;SDS011;12844;52.110;5.548;2024-01-16T02:09:43;2.22;;;0.60;;
24743;SDS011;12844;52.110;5.548;2024-01-16T02:12:09;1.55;;;0.60;;
24743;SDS011;12844;52.110;5.548;2024-01-16T02:14:34;1.98;;;0.52;;
24743;SDS011;12844;52.110;5.548;2024-01-16T02:17:00;3.42;;;0.70;;
24743;SDS011;12844;52.110;5.548;2024-01-16T02:19:25;3.30;;;0.77;;
24743;SDS011;12844;52.110;5.548;2024-01-16T02:21:51;2.95;;;0.57;;
24743;SDS011;12844;52.110;5.548;2024-01-16T02:24:23;2.22;;;0.60;;
24743;SDS011;12844;52.110;5.548;2024-01-16T02:26:49;2.13;;;0.50;;
24743;SDS011;12844;52.110;5.548;2024-01-16T02:29:14;1.70;;;0.82;;
24743;SDS011;12844;52.110;5.548;2024-01-16T02:31:41;2.00;;;0.65;;
24743;SDS011;12844;52.110;5.548;2024-01-16T02:34:07;1.85;;;0.50;;
24743;SDS011;12844;52.110;5.548;2024-01-16T02:36:32;1.08;;;0.40;;
24743;SDS011;12844;52.110;5.548;2024-01-16T02:38:58;2.30;;;0.60;;
24743;SDS011;12844;52.110;5.548;2024-01-16T02:41:24;1.45;;;0.47;;
24743;SDS011;12844;52.110;5.548;2024-01-16T02:43:50;2.88;;;0.70;;
24743;SDS011;12844;52.110;5.548;2024-01-16T02:46:16;1.70;;;0.60;;
24743;SDS011;12844;52.110;5.548;2024-01-16T02:48:42;1.75;;;0.50;;
24743;SDS011;12844;52.110;5.548;2024-01-16T02:51:08;1.45;;;0.50;;
24743;SDS011;12844;52.110;5.548;2024-01-16T02:53:34;1.65;;;0.40;;
24743;SDS011;12844;52.110;5.548;2024-01-16T02:56:00;0.68;;;0.32;;
24743;SDS011;12844;52.110;5.548;2024-01-16T02:58:26;2.55;;;0.40;;
24743;SDS011;12844;52.110;5.548;2024-01-16T03:00:52;1.83;;;0.50;;
24743;SDS011;12844;52.110;5.548;2024-01-16T03:03:18;2.20;;;0.63;;
24743;SDS011;12844;52.110;5.548;2024-01-16T03:05:45;1.75;;;0.60;;
24743;SDS011;12844;52.110;5.548;2024-01-16T03:08:11;1.48;;;0.40;;
24743;SDS011;12844;52.110;5.548;2024-01-16T03:10:37;0.98;;;0.50;;
24743;SDS011;12844;52.110;5.548;2024-01-16T03:13:02;2.20;;;0.40;;
24743;SDS011;12844;52.110;5.548;2024-01-16T03:15:28;1.13;;;0.30;;
24743;SDS011;12844;52.110;5.548;2024-01-16T03:17:56;1.42;;;0.40;;
24743;SDS011;12844;52.110;5.548;2024-01-16T03:20:22;0.95;;;0.30;;
24743;SDS011;12844;52.110;5.548;2024-01-16T03:22:48;1.25;;;0.40;;
24743;SDS011;12844;52.110;5.548;2024-01-16T03:25:14;1.77;;;0.50;;
24743;SDS011;12844;52.110;5.548;2024-01-16T03:27:39;1.75;;;0.50;;
24743;SDS011;12844;52.110;5.548;2024-01-16T03:30:05;1.48;;;0.52;;
24743;SDS011;12844;52.110;5.548;2024-01-16T03:32:33;2.28;;;0.43;;
24743;SDS011;12844;52.110;5.548;2024-01-16T03:34:59;1.85;;;0.45;;
24743;SDS011;12844;52.110;5.548;2024-01-16T03:37:25;1.55;;;0.40;;
24743;SDS011;12844;52.110;5.548;2024-01-16T03:39:50;1.55;;;0.40;;
24743;SDS011;12844;52.110;5.548;2024-01-16T03:42:16;1.88;;;0.60;;
24743;SDS011;12844;52.110;5.548;2024-01-16T03:44:42;0.82;;;0.30;;
24743;SDS011;12844;52.110;5.548;2024-01-16T03:47:08;1.95;;;0.60;;
24743;SDS011;12844;52.110;5.548;2024-01-16T03:49:33;1.88;;;0.50;;
24743;SDS011;12844;52.110;5.548;2024-01-16T03:51:59;1.52;;;0.40;;
24743;SDS011;12844;52.110;5.548;2024-01-16T03:54:25;1.08;;;0.30;;
24743;SDS011;12844;52.110;5.548;2024-01-16T03:56:51;1.02;;;0.50;;
24743;SDS011;12844;52.110;5.548;2024-01-16T03:59:18;0.50;;;0.30;;
24743;SDS011;12844;52.110;5.548;2024-01-16T04:01:43;1.48;;;0.32;;
24743;SDS011;12844;52.110;5.548;2024-01-16T04:04:10;1.33;;;0.40;;
24743;SDS011;12844;52.110;5.548;2024-01-16T04:06:36;1.17;;;0.40;;
24743;SDS011;12844;52.110;5.548;2024-01-16T04:09:02;1.00;;;0.30;;
24743;SDS011;12844;52.110;5.548;2024-01-16T04:11:28;1.67;;;0.40;;
24743;SDS011;12844;52.110;5.548;2024-01-16T04:13:54;2.45;;;0.47;;
24743;SDS011;12844;52.110;5.548;2024-01-16T04:16:20;0.68;;;0.30;;
24743;SDS011;12844;52.110;5.548;2024-01-16T04:18:46;0.57;;;0.22;;
24743;SDS011;12844;52.110;5.548;2024-01-16T04:21:12;1.85;;;0.40;;
24743;SDS011;12844;52.110;5.548;2024-01-16T04:23:38;1.20;;;0.40;;
24743;SDS011;12844;52.110;5.548;2024-01-16T04:26:03;0.82;;;0.30;;
24743;SDS011;12844;52.110;5.548;2024-01-16T04:28:29;1.02;;;0.40;;
24743;SDS011;12844;52.110;5.548;2024-01-16T04:30:54;2.17;;;0.30;;
24743;SDS011;12844;52.110;5.548;2024-01-16T04:33:20;2.92;;;0.30;;
24743;SDS011;12844;52.110;5.548;2024-01-16T04:35:46;1.60;;;0.50;;
24743;SDS011;12844;52.110;5.548;2024-01-16T04:38:11;1.30;;;0.40;;
24743;SDS011;12844;52.110;5.548;2024-01-16T04:40:37;0.88;;;0.35;;
24743;SDS011;12844;52.110;5.548;2024-01-16T04:43:02;1.77;;;0.35;;
24743;SDS011;12844;52.110;5.548;2024-01-16T04:45:28;1.80;;;0.50;;
24743;SDS011;12844;52.110;5.548;2024-01-16T04:47:54;2.05;;;0.30;;
24743;SDS011;12844;52.110;5.548;2024-01-16T04:50:19;3.00;;;0.60;;
24743;SDS011;12844;52.110;5.548;2024-01-16T04:52:45;2.00;;;0.45;;
24743;SDS011;12844;52.110;5.548;2024-01-16T04:55:10;0.57;;;0.30;;
24743;SDS011;12844;52.110;5.548;2024-01-16T04:57:36;1.20;;;0.32;;
24743;SDS011;12844;52.110;5.548;2024-01-16T05:00:02;2.58;;;0.40;;
24743;SDS011;12844;52.110;5.548;2024-01-16T05:02:32;1.30;;;0.32;;
24743;SDS011;12844;52.110;5.548;2024-01-16T05:04:59;2.15;;;0.50;;
24743;SDS011;12844;52.110;5.548;2024-01-16T05:07:24;1.08;;;0.40;;
24743;SDS011;12844;52.110;5.548;2024-01-16T05:09:51;0.75;;;0.22;;
24743;SDS011;12844;52.110;5.548;2024-01-16T05:12:17;1.33;;;0.30;;
24743;SDS011;12844;52.110;5.548;2024-01-16T05:14:42;1.60;;;0.40;;
24743;SDS011;12844;52.110;5.548;2024-01-16T05:17:08;0.90;;;0.30;;
24743;SDS011;12844;52.110;5.548;2024-01-16T05:19:33;0.98;;;0.30;;
24743;SDS011;12844;52.110;5.548;2024-01-16T05:21:59;0.70;;;0.30;;
24743;SDS011;12844;52.110;5.548;2024-01-16T05:24:25;0.65;;;0.30;;
24743;SDS011;12844;52.110;5.548;2024-01-16T05:26:50;0.98;;;0.30;;
24743;SDS011;12844;52.110;5.548;2024-01-16T05:29:16;1.85;;;0.30;;
24743;SDS011;12844;52.110;5.548;2024-01-16T05:31:43;0.68;;;0.30;;
24743;SDS011;12844;52.110;5.548;2024-01-16T05:34:09;1.10;;;0.50;;
24743;SDS011;12844;52.110;5.548;2024-01-16T05:36:34;0.85;;;0.32;;
24743;SDS011;12844;52.110;5.548;2024-01-16T05:39:00;2.25;;;0.40;;
24743;SDS011;12844;52.110;5.548;2024-01-16T05:41:26;1.15;;;0.50;;
24743;SDS011;12844;52.110;5.548;2024-01-16T05:43:52;1.23;;;0.30;;
24743;SDS011;12844;52.110;5.548;2024-01-16T05:46:18;0.45;;;0.30;;
24743;SDS011;12844;52.110;5.548;2024-01-16T05:48:43;0.98;;;0.32;;
24743;SDS011;12844;52.110;5.548;2024-01-16T05:51:09;1.00;;;0.50;;
24743;SDS011;12844;52.110;5.548;2024-01-16T05:53:35;0.85;;;0.30;;
24743;SDS011;12844;52.110;5.548;2024-01-16T05:56:00;1.75;;;0.43;;
24743;SDS011;12844;52.110;5.548;2024-01-16T05:58:26;1.02;;;0.30;;
24743;SDS011;12844;52.110;5.548;2024-01-16T06:00:51;1.05;;;0.38;;
24743;SDS011;12844;52.110;5.548;2024-01-16T06:03:17;0.93;;;0.35;;
24743;SDS011;12844;52.110;5.548;2024-01-16T06:05:43;0.60;;;0.38;;
24743;SDS011;12844;52.110;5.548;2024-01-16T06:08:08;1.38;;;0.30;;
24743;SDS011;12844;52.110;5.548;2024-01-16T06:10:34;0.75;;;0.30;;
24743;SDS011;12844;52.110;5.548;2024-01-16T06:13:00;2.35;;;0.45;;
24743;SDS011;12844;52.110;5.548;2024-01-16T06:15:25;0.75;;;0.40;;
24743;SDS011;12844;52.110;5.548;2024-01-16T06:17:51;0.95;;;0.40;;
24743;SDS011;12844;52.110;5.548;2024-01-16T06:20:16;1.70;;;0.40;;
24743;SDS011;12844;52.110;5.548;2024-01-16T06:22:42;0.38;;;0.20;;
24743;SDS011;12844;52.110;5.548;2024-01-16T06:25:08;1.27;;;0.47;;
24743;SDS011;12844;52.110;5.548;2024-01-16T06:27:33;1.30;;;0.50;;
24743;SDS011;12844;52.110;5.548;2024-01-16T06:29:59;0.50;;;0.30;;
24743;SDS011;12844;52.110;5.548;2024-01-16T06:32:24;0.68;;;0.43;;
24743;SDS011;12844;52.110;5.548;2024-01-16T06:34:50;1.65;;;0.40;;
24743;SDS011;12844;52.110;5.548;2024-01-16T06:37:16;0.47;;;0.20;;
24743;SDS011;12844;52.110;5.548;2024-01-16T06:39:41;1.40;;;0.30;;
24743;SDS011;12844;52.110;5.548;2024-01-16T06:42:07;0.57;;;0.25;;
24743;SDS011;12844;52.110;5.548;2024-01-16T06:44:32;1.08;;;0.32;;
24743;SDS011;12844;52.110;5.548;2024-01-16T06:46:58;0.70;;;0.40;;
24743;SDS011;12844;52.110;5.548;2024-01-16T06:49:23;0.50;;;0.38;;
24743;SDS011;12844;52.110;5.548;2024-01-16T06:51:49;2.17;;;0.50;;
24743;SDS011;12844;52.110;5.548;2024-01-16T06:54:14;0.77;;;0.28;;
24743;SDS011;12844;52.110;5.548;2024-01-16T06:56:40;1.10;;;0.30;;
24743;SDS011;12844;52.110;5.548;2024-01-16T06:59:06;0.93;;;0.40;;
24743;SDS011;12844;52.110;5.548;2024-01-16T07:01:31;1.27;;;0.40;;
24743;SDS011;12844;52.110;5.548;2024-01-16T07:03:57;1.13;;;0.60;;
24743;SDS011;12844;52.110;5.548;2024-01-16T07:06:22;0.75;;;0.43;;
24743;SDS011;12844;52.110;5.548;2024-01-16T07:08:48;1.15;;;0.40;;
24743;SDS011;12844;52.110;5.548;2024-01-16T07:11:13;0.73;;;0.40;;
24743;SDS011;12844;52.110;5.548;2024-01-16T07:13:40;0.77;;;0.40;;
24743;SDS011;12844;52.110;5.548;2024-01-16T07:16:08;1.05;;;0.40;;
24743;SDS011;12844;52.110;5.548;2024-01-16T07:18:35;1.17;;;0.45;;
24743;SDS011;12844;52.110;5.548;2024-01-16T07:21:02;1.27;;;0.40;;
24743;SDS011;12844;52.110;5.548;2024-01-16T07:23:29;1.02;;;0.60;;
24743;SDS011;12844;52.110;5.548;2024-01-16T07:25:55;1.30;;;0.60;;
24743;SDS011;12844;52.110;5.548;2024-01-16T07:28:20;1.40;;;0.63;;
24743;SDS011;12844;52.110;5.548;2024-01-16T07:30:47;1.63;;;0.50;;
24743;SDS011;12844;52.110;5.548;2024-01-16T07:33:13;2.55;;;0.80;;
24743;SDS011;12844;52.110;5.548;2024-01-16T07:35:38;0.98;;;0.38;;
24743;SDS011;12844;52.110;5.548;2024-01-16T07:38:06;1.58;;;0.52;;
24743;SDS011;12844;52.110;5.548;2024-01-16T07:40:32;0.95;;;0.57;;
24743;SDS011;12844;52.110;5.548;2024-01-16T07:42:57;1.25;;;0.80;;
24743;SDS011;12844;52.110;5.548;2024-01-16T07:45:23;1.33;;;0.60;;
24743;SDS011;12844;52.110;5.548;2024-01-16T07:47:49;9.60;;;0.95;;
24743;SDS011;12844;52.110;5.548;2024-01-16T07:50:14;1.52;;;0.70;;
24743;SDS011;12844;52.110;5.548;2024-01-16T07:52:40;2.38;;;0.63;;
24743;SDS011;12844;52.110;5.548;2024-01-16T07:55:06;2.47;;;0.60;;
24743;SDS011;12844;52.110;5.548;2024-01-16T07:57:32;2.38;;;0.85;;
24743;SDS011;12844;52.110;5.548;2024-01-16T07:59:58;3.40;;;0.82;;
24743;SDS011;12844;52.110;5.548;2024-01-16T08:02:26;3.20;;;0.70;;
24743;SDS011;12844;52.110;5.548;2024-01-16T08:04:56;4.22;;;0.77;;
24743;SDS011;12844;52.110;5.548;2024-01-16T08:07:22;3.13;;;0.68;;
24743;SDS011;12844;52.110;5.548;2024-01-16T08:09:47;2.78;;;0.65;;
24743;SDS011;12844;52.110;5.548;2024-01-16T08:12:13;1.67;;;0.47;;
24743;SDS011;12844;52.110;5.548;2024-01-16T08:14:39;1.60;;;0.60;;
24743;SDS011;12844;52.110;5.548;2024-01-16T08:17:04;1.15;;;0.55;;
24743;SDS011;12844;52.110;5.548;2024-01-16T08:19:30;1.70;;;0.60;;
24743;SDS011;12844;52.110;5.548;2024-01-16T08:21:57;1.55;;;0.70;;
24743;SDS011;12844;52.110;5.548;2024-01-16T08:24:23;3.00;;;0.65;;
24743;SDS011;12844;52.110;5.548;2024-01-16T08:26:49;2.42;;;0.70;;
24743;SDS011;12844;52.110;5.548;2024-01-16T08:29:15;3.15;;;0.70;;
24743;SDS011;12844;52.110;5.548;2024-01-16T08:31:40;4.15;;;0.63;;
24743;SDS011;12844;52.110;5.548;2024-01-16T08:34:06;1.75;;;0.60;;
24743;SDS011;12844;52.110;5.548;2024-01-16T08:36:32;2.25;;;0.60;;
24743;SDS011;12844;52.110;5.548;2024-01-16T08:38:57;3.75;;;0.63;;
24743;SDS011;12844;52.110;5.548;2024-01-16T08:41:23;2.13;;;0.77;;
24743;SDS011;12844;52.110;5.548;2024-01-16T08:43:48;2.15;;;0.70;;
24743;SDS011;12844;52.110;5.548;2024-01-16T08:46:14;2.33;;;0.70;;
24743;SDS011;12844;52.110;5.548;2024-01-16T08:48:40;1.92;;;0.77;;
24743;SDS011;12844;52.110;5.548;2024-01-16T08:51:07;1.90;;;0.75;;
24743;SDS011;12844;52.110;5.548;2024-01-16T08:53:36;3.55;;;1.30;;
24743;SDS011;12844;52.110;5.548;2024-01-16T08:56:02;2.67;;;0.80;;
24743;SDS011;12844;52.110;5.548;2024-01-16T08:58:31;3.30;;;0.88;;
24743;SDS011;12844;52.110;5.548;2024-01-16T09:01:01;2.53;;;1.00;;
24743;SDS011;12844;52.110;5.548;2024-01-16T09:03:27;2.25;;;0.80;;
24743;SDS011;12844;52.110;5.548;2024-01-16T09:05:53;3.83;;;1.50;;
24743;SDS011;12844;52.110;5.548;2024-01-16T09:08:18;4.55;;;0.93;;
24743;SDS011;12844;52.110;5.548;2024-01-16T09:10:44;6.53;;;1.00;;
24743;SDS011;12844;52.110;5.548;2024-01-16T09:13:10;3.13;;;1.00;;
24743;SDS011;12844;52.110;5.548;2024-01-16T09:15:36;2.88;;;1.00;;
24743;SDS011;12844;52.110;5.548;2024-01-16T09:18:02;2.70;;;0.90;;
24743;SDS011;12844;52.110;5.548;2024-01-16T09:20:27;2.70;;;1.15;;
24743;SDS011;12844;52.110;5.548;2024-01-16T09:22:53;3.85;;;1.00;;
24743;SDS011;12844;52.110;5.548;2024-01-16T09:25:18;3.00;;;0.93;;
24743;SDS011;12844;52.110;5.548;2024-01-16T09:27:45;2.88;;;0.80;;
24743;SDS011;12844;52.110;5.548;2024-01-16T09:30:10;1.95;;;1.00;;
24743;SDS011;12844;52.110;5.548;2024-01-16T09:32:37;2.50;;;0.88;;
24743;SDS011;12844;52.110;5.548;2024-01-16T09:35:03;3.60;;;1.17;;
24743;SDS011;12844;52.110;5.548;2024-01-16T09:37:31;3.35;;;1.08;;
24743;SDS011;12844;52.110;5.548;2024-01-16T09:39:57;4.50;;;0.93;;
24743;SDS011;12844;52.110;5.548;2024-01-16T09:42:22;3.45;;;0.68;;
24743;SDS011;12844;52.110;5.548;2024-01-16T09:44:49;3.85;;;0.80;;
24743;SDS011;12844;52.110;5.548;2024-01-16T09:47:16;4.18;;;1.45;;
24743;SDS011;12844;52.110;5.548;2024-01-16T09:49:43;3.47;;;0.75;;
24743;SDS011;12844;52.110;5.548;2024-01-16T09:52:11;4.07;;;1.13;;
24743;SDS011;12844;52.110;5.548;2024-01-16T09:54:37;3.35;;;1.13;;
24743;SDS011;12844;52.110;5.548;2024-01-16T09:57:02;4.00;;;1.10;;
24743;SDS011;12844;52.110;5.548;2024-01-16T09:59:32;3.28;;;0.95;;
24743;SDS011;12844;52.110;5.548;2024-01-16T10:02:01;2.95;;;0.80;;
24743;SDS011;12844;52.110;5.548;2024-01-16T10:04:32;1.80;;;0.85;;
24743;SDS011;12844;52.110;5.548;2024-01-16T10:06:59;4.53;;;1.05;;
24743;SDS011;12844;52.110;5.548;2024-01-16T10:09:27;2.10;;;0.70;;
24743;SDS011;12844;52.110;5.548;2024-01-16T10:11:53;4.53;;;1.10;;
24743;SDS011;12844;52.110;5.548;2024-01-16T10:14:19;4.38;;;1.17;;
24743;SDS011;12844;52.110;5.548;2024-01-16T10:16:55;3.60;;;0.80;;
24743;SDS011;12844;52.110;5.548;2024-01-16T10:19:27;5.23;;;1.10;;
24743;SDS011;12844;52.110;5.548;2024-01-16T10:22:04;2.83;;;1.02;;
24743;SDS011;12844;52.110;5.548;2024-01-16T10:24:31;2.63;;;0.82;;
24743;SDS011;12844;52.110;5.548;2024-01-16T10:26:59;1.67;;;0.82;;
24743;SDS011;12844;52.110;5.548;2024-01-16T10:29:26;2.60;;;1.00;;
24743;SDS011;12844;52.110;5.548;2024-01-16T10:31:52;2.65;;;0.90;;
24743;SDS011;12844;52.110;5.548;2024-01-16T10:34:21;4.95;;;1.00;;
24743;SDS011;12844;52.110;5.548;2024-01-16T10:36:49;1.90;;;0.85;;
24743;SDS011;12844;52.110;5.548;2024-01-16T10:39:17;2.30;;;0.70;;
24743;SDS011;12844;52.110;5.548;2024-01-16T10:41:58;4.50;;;1.08;;
24743;SDS011;12844;52.110;5.548;2024-01-16T10:44:25;3.13;;;0.90;;
24743;SDS011;12844;52.110;5.548;2024-01-16T10:46:52;1.83;;;0.90;;
24743;SDS011;12844;52.110;5.548;2024-01-16T10:50:09;2.85;;;0.98;;
24743;SDS011;12844;52.110;5.548;2024-01-16T10:52:34;4.70;;;1.05;;
24743;SDS011;12844;52.110;5.548;2024-01-16T10:55:05;3.55;;;0.98;;
24743;SDS011;12844;52.110;5.548;2024-01-16T10:57:34;4.72;;;0.88;;
24743;SDS011;12844;52.110;5.548;2024-01-16T11:00:04;6.43;;;1.20;;
24743;SDS011;12844;52.110;5.548;2024-01-16T11:05:34;3.83;;;0.82;;
24743;SDS011;12844;52.110;5.548;2024-01-16T11:08:02;3.35;;;1.10;;
24743;SDS011;12844;52.110;5.548;2024-01-16T11:10:31;5.68;;;1.00;;
24743;SDS011;12844;52.110;5.548;2024-01-16T11:12:59;5.38;;;1.17;;
24743;SDS011;12844;52.110;5.548;2024-01-16T11:15:27;4.32;;;0.90;;
24743;SDS011;12844;52.110;5.548;2024-01-16T11:17:54;3.63;;;1.25;;
24743;SDS011;12844;52.110;5.548;2024-01-16T11:20:21;3.72;;;1.10;;
24743;SDS011;12844;52.110;5.548;2024-01-16T11:22:48;4.05;;;0.93;;
24743;SDS011;12844;52.110;5.548;2024-01-16T11:25:16;3.45;;;1.23;;
24743;SDS011;12844;52.110;5.548;2024-01-16T11:27:43;4.85;;;1.23;;
24743;SDS011;12844;52.110;5.548;2024-01-16T11:30:15;3.95;;;1.17;;
24743;SDS011;12844;52.110;5.548;2024-01-16T11:32:56;3.78;;;1.00;;
24743;SDS011;12844;52.110;5.548;2024-01-16T11:35:37;3.78;;;1.33;;
24743;SDS011;12844;52.110;5.548;2024-01-16T11:40:32;3.10;;;1.40;;
24743;SDS011;12844;52.110;5.548;2024-01-16T11:42:58;6.68;;;1.42;;
24743;SDS011;12844;52.110;5.548;2024-01-16T11:48:11;4.18;;;1.60;;
24743;SDS011;12844;52.110;5.548;2024-01-16T11:50:41;5.70;;;1.77;;
24743;SDS011;12844;52.110;5.548;2024-01-16T11:53:07;5.03;;;1.70;;
24743;SDS011;12844;52.110;5.548;2024-01-16T11:55:34;5.55;;;1.70;;
24743;SDS011;12844;52.110;5.548;2024-01-16T11:58:21;3.22;;;1.42;;
24743;SDS011;12844;52.110;5.548;2024-01-16T12:01:14;4.40;;;1.70;;
24743;SDS011;12844;52.110;5.548;2024-01-16T12:03:44;5.03;;;1.42;;
24743;SDS011;12844;52.110;5.548;2024-01-16T12:06:10;4.35;;;1.40;;
24743;SDS011;12844;52.110;5.548;2024-01-16T12:08:36;7.10;;;1.70;;
24743;SDS011;12844;52.110;5.548;2024-01-16T12:11:04;5.30;;;1.48;;
24743;SDS011;12844;52.110;5.548;2024-01-16T12:13:30;6.47;;;1.60;;
24743;SDS011;12844;52.110;5.548;2024-01-16T12:15:59;7.88;;;1.58;;
24743;SDS011;12844;52.110;5.548;2024-01-16T12:18:26;3.58;;;1.58;;
24743;SDS011;12844;52.110;5.548;2024-01-16T12:20:52;6.07;;;1.60;;
24743;SDS011;12844;52.110;5.548;2024-01-16T12:23:17;5.07;;;1.40;;
24743;SDS011;12844;52.110;5.548;2024-01-16T12:25:45;3.88;;;1.50;;
24743;SDS011;12844;52.110;5.548;2024-01-16T12:28:11;4.00;;;1.50;;
24743;SDS011;12844;52.110;5.548;2024-01-16T12:30:46;5.55;;;1.30;;
24743;SDS011;12844;52.110;5.548;2024-01-16T12:33:14;3.63;;;1.60;;
24743;SDS011;12844;52.110;5.548;2024-01-16T12:35:44;4.15;;;1.42;;
24743;SDS011;12844;52.110;5.548;2024-01-16T12:38:10;5.03;;;1.52;;
24743;SDS011;12844;52.110;5.548;2024-01-16T12:40:41;5.82;;;1.33;;
24743;SDS011;12844;52.110;5.548;2024-01-16T12:43:12;3.55;;;1.70;;
24743;SDS011;12844;52.110;5.548;2024-01-16T12:45:38;5.15;;;1.33;;
24743;SDS011;12844;52.110;5.548;2024-01-16T12:48:04;5.18;;;1.73;;
24743;SDS011;12844;52.110;5.548;2024-01-16T12:50:30;5.25;;;1.55;;
24743;SDS011;12844;52.110;5.548;2024-01-16T12:53:09;6.10;;;1.70;;
24743;SDS011;12844;52.110;5.548;2024-01-16T12:55:37;5.85;;;2.03;;
24743;SDS011;12844;52.110;5.548;2024-01-16T12:58:16;5.22;;;1.90;;
24743;SDS011;12844;52.110;5.548;2024-01-16T13:00:47;4.78;;;1.35;;
24743;SDS011;12844;52.110;5.548;2024-01-16T13:03:20;5.93;;;1.70;;
24743;SDS011;12844;52.110;5.548;2024-01-16T13:06:00;5.25;;;1.70;;
24743;SDS011;12844;52.110;5.548;2024-01-16T13:08:26;3.15;;;1.40;;
24743;SDS011;12844;52.110;5.548;2024-01-16T13:11:06;5.75;;;1.80;;
24743;SDS011;12844;52.110;5.548;2024-01-16T13:13:32;7.07;;;1.95;;
24743;SDS011;12844;52.110;5.548;2024-01-16T13:15:59;6.55;;;1.90;;
24743;SDS011;12844;52.110;5.548;2024-01-16T13:18:26;4.60;;;1.55;;
24743;SDS011;12844;52.110;5.548;2024-01-16T13:20:54;5.30;;;1.80;;
24743;SDS011;12844;52.110;5.548;2024-01-16T13:23:23;5.38;;;1.63;;
24743;SDS011;12844;52.110;5.548;2024-01-16T13:25:50;4.93;;;1.95;;
24743;SDS011;12844;52.110;5.548;2024-01-16T13:28:16;3.78;;;1.42;;
24743;SDS011;12844;52.110;5.548;2024-01-16T13:30:43;3.70;;;1.52;;
24743;SDS011;12844;52.110;5.548;2024-01-16T13:33:09;5.20;;;1.70;;
24743;SDS011;12844;52.110;5.548;2024-01-16T13:35:37;2.63;;;1.25;;
24743;SDS011;12844;52.110;5.548;2024-01-16T13:38:08;3.50;;;1.42;;
24743;SDS011;12844;52.110;5.548;2024-01-16T13:40:37;3.30;;;1.50;;
24743;SDS011;12844;52.110;5.548;2024-01-16T13:43:03;3.28;;;1.58;;
24743;SDS011;12844;52.110;5.548;2024-01-16T13:45:31;4.95;;;1.63;;
24743;SDS011;12844;52.110;5.548;2024-01-16T13:47:57;4.18;;;1.35;;
24743;SDS011;12844;52.110;5.548;2024-01-16T13:50:23;3.10;;;1.40;;
24743;SDS011;12844;52.110;5.548;2024-01-16T13:52:49;3.67;;;1.63;;
24743;SDS011;12844;52.110;5.548;2024-01-16T13:55:15;4.10;;;1.60;;
24743;SDS011;12844;52.110;5.548;2024-01-16T13:57:41;3.10;;;1.20;;
24743;SDS011;12844;52.110;5.548;2024-01-16T14:00:08;4.32;;;1.98;;
24743;SDS011;12844;52.110;5.548;2024-01-16T14:02:42;4.32;;;1.50;;
24743;SDS011;12844;52.110;5.548;2024-01-16T14:05:09;3.72;;;1.33;;
24743;SDS011;12844;52.110;5.548;2024-01-16T14:07:39;3.05;;;1.40;;
24743;SDS011;12844;52.110;5.548;2024-01-16T14:10:08;3.42;;;1.52;;
24743;SDS011;12844;52.110;5.548;2024-01-16T14:12:40;3.85;;;1.30;;
24743;SDS011;12844;52.110;5.548;2024-01-16T14:15:13;3.67;;;1.35;;
24743;SDS011;12844;52.110;5.548;2024-01-16T14:17:54;3.53;;;1.38;;
24743;SDS011;12844;52.110;5.548;2024-01-16T14:20:20;3.53;;;1.20;;
24743;SDS011;12844;52.110;5.548;2024-01-16T14:22:48;2.17;;;1.13;;
24743;SDS011;12844;52.110;5.548;2024-01-16T14:25:18;3.20;;;1.50;;
24743;SDS011;12844;52.110;5.548;2024-01-16T14:27:45;4.93;;;1.40;;
24743;SDS011;12844;52.110;5.548;2024-01-16T14:30:13;3.13;;;1.40;;
24743;SDS011;12844;52.110;5.548;2024-01-16T14:32:40;5.78;;;1.50;;
24743;SDS011;12844;52.110;5.548;2024-01-16T14:35:07;2.28;;;1.30;;
24743;SDS011;12844;52.110;5.548;2024-01-16T14:37:34;2.90;;;1.30;;
24743;SDS011;12844;52.110;5.548;2024-01-16T14:40:01;3.47;;;1.35;;
24743;SDS011;12844;52.110;5.548;2024-01-16T14:42:28;4.07;;;1.45;;
24743;SDS011;12844;52.110;5.548;2024-01-16T14:44:54;2.42;;;1.23;;
24743;SDS011;12844;52.110;5.548;2024-01-16T14:47:20;2.83;;;1.13;;
24743;SDS011;12844;52.110;5.548;2024-01-16T14:49:45;2.70;;;1.15;;
24743;SDS011;12844;52.110;5.548;2024-01-16T14:52:11;2.95;;;1.20;;
24743;SDS011;12844;52.110;5.548;2024-01-16T14:54:37;3.13;;;1.23;;
24743;SDS011;12844;52.110;5.548;2024-01-16T14:57:04;3.10;;;1.13;;